Time;durP1;ratioP1;P1;durP2;ratioP2;P2;SDS_P1;SDS_P2;PMS_P1;PMS_P2;Temp;Humidity;BMP_temperature;BMP_pressure;BME280_temperature;BME280_humidity;BME280_pressure;Samples;Min_cycle;Max_cycle;Signal;HPM_P1;HPM_P2
2021/07/30 00:00:18;;;;;;;19.10;17.30;;;16.00;99.90;;;;;;5055300;28;20452;-70
2021/07/30 00:02:45;;;;;;;17.40;16.20;;;16.00;99.90;;;;;;5058004;28;20485;-71
2021/07/30 00:05:14;;;;;;;16.97;15.97;;;16.10;99.90;;;;;;5061142;28;20961;-70
2021/07/30 00:07:43;;;;;;;17.60;16.20;;;16.10;99.90;;;;;;5060015;28;20458;-70
2021/07/30 00:10:10;;;;;;;17.53;16.20;;;16.20;99.90;;;;;;5057674;28;20935;-70
2021/07/30 00:12:37;;;;;;;16.27;14.97;;;16.20;99.90;;;;;;5059990;28;20459;-70
2021/07/30 00:15:07;;;;;;;16.47;15.23;;;16.20;99.90;;;;;;5054775;28;20479;-70
2021/07/30 00:17:35;;;;;;;17.63;16.17;;;16.30;99.90;;;;;;5062219;28;20476;-70
2021/07/30 00:20:04;;;;;;;16.90;15.67;;;16.40;99.90;;;;;;5055825;28;20455;-71
2021/07/30 00:22:32;;;;;;;18.17;16.70;;;16.40;99.90;;;;;;5057475;28;20495;-70
2021/07/30 00:24:58;;;;;;;17.50;16.10;;;16.50;99.90;;;;;;5055094;28;20456;-70
2021/07/30 00:27:26;;;;;;;16.90;15.53;;;16.40;99.90;;;;;;5053465;28;20463;-71
2021/07/30 00:29:52;;;;;;;17.13;15.80;;;16.50;99.90;;;;;;5052554;28;20464;-70
2021/07/30 00:32:21;;;;;;;17.00;15.73;;;16.50;99.90;;;;;;5061298;28;20475;-71
2021/07/30 00:34:47;;;;;;;18.87;17.40;;;16.60;99.90;;;;;;5057626;28;20479;-71
2021/07/30 00:37:14;;;;;;;17.13;16.00;;;16.60;99.90;;;;;;5058073;28;20468;-70
2021/07/30 00:39:41;;;;;;;17.40;16.20;;;16.50;99.90;;;;;;5060515;28;20805;-71
2021/07/30 00:42:08;;;;;;;17.53;16.00;;;16.50;99.90;;;;;;5059701;28;20464;-71
2021/07/30 00:44:35;;;;;;;17.53;16.43;;;16.60;99.90;;;;;;5062077;28;20498;-70
2021/07/30 00:47:04;;;;;;;17.57;16.03;;;16.60;99.90;;;;;;5060002;28;20962;-71
2021/07/30 00:49:32;;;;;;;16.93;15.63;;;16.60;99.90;;;;;;5059749;28;20457;-70
2021/07/30 00:52:00;;;;;;;17.83;16.40;;;16.60;99.90;;;;;;5057909;28;20470;-71
2021/07/30 00:54:27;;;;;;;22.97;17.53;;;16.70;99.90;;;;;;5054996;28;20475;-71
2021/07/30 00:56:54;;;;;;;17.87;16.37;;;16.60;99.90;;;;;;5050718;28;20484;-70
2021/07/30 00:59:25;;;;;;;17.70;16.60;;;16.50;99.90;;;;;;5054011;28;20448;-71
2021/07/30 01:01:52;;;;;;;16.80;15.80;;;16.50;99.90;;;;;;5057544;28;20463;-70
2021/07/30 01:04:19;;;;;;;18.73;17.53;;;16.50;99.90;;;;;;5056913;28;20939;-71
2021/07/30 01:06:49;;;;;;;19.13;17.57;;;16.50;99.90;;;;;;5059541;28;20464;-71
2021/07/30 01:09:16;;;;;;;22.93;17.10;;;16.60;99.90;;;;;;5050746;28;20461;-70
2021/07/30 01:11:44;;;;;;;18.57;17.27;;;16.50;99.90;;;;;;5051751;28;20478;-70
2021/07/30 01:14:11;;;;;;;18.57;17.27;;;16.40;99.90;;;;;;5049536;28;20459;-71
2021/07/30 01:16:39;;;;;;;18.00;16.77;;;16.30;99.90;;;;;;5056135;28;20498;-71
2021/07/30 01:19:07;;;;;;;18.20;16.90;;;16.20;99.90;;;;;;5051149;28;20487;-71
2021/07/30 01:21:35;;;;;;;17.90;16.83;;;16.00;99.90;;;;;;5057327;28;20556;-71
2021/07/30 01:24:05;;;;;;;17.80;16.60;;;15.90;99.90;;;;;;5059754;28;20452;-71
2021/07/30 01:26:31;;;;;;;19.57;17.60;;;15.80;99.90;;;;;;5056811;28;20463;-70
2021/07/30 01:28:59;;;;;;;18.40;17.20;;;15.70;99.90;;;;;;5050040;28;20456;-70
2021/07/30 01:31:27;;;;;;;18.93;17.30;;;15.60;99.90;;;;;;5051515;28;20470;-70
2021/07/30 01:33:54;;;;;;;19.00;17.70;;;15.50;99.90;;;;;;5058806;28;20475;-71
2021/07/30 01:36:20;;;;;;;18.37;16.97;;;15.40;99.90;;;;;;5052767;28;20494;-71
2021/07/30 01:38:47;;;;;;;19.03;17.50;;;15.20;99.90;;;;;;5048621;28;20463;-70
2021/07/30 01:41:15;;;;;;;18.83;17.43;;;15.10;99.90;;;;;;5056127;28;20833;-70
2021/07/30 01:43:43;;;;;;;18.50;17.27;;;15.00;99.90;;;;;;5048428;28;20471;-70
2021/07/30 01:46:11;;;;;;;19.87;18.30;;;14.90;99.90;;;;;;5054242;28;20464;-70
2021/07/30 01:48:38;;;;;;;21.20;18.43;;;14.90;99.90;;;;;;5055697;28;20463;-71
2021/07/30 01:51:06;;;;;;;19.30;18.00;;;14.80;99.90;;;;;;5052432;28;20458;-70
2021/07/30 01:53:33;;;;;;;19.57;17.63;;;14.70;99.90;;;;;;5052124;28;20455;-70
2021/07/30 01:56:03;;;;;;;18.77;17.53;;;14.60;99.90;;;;;;5063004;28;20481;-70
2021/07/30 01:58:34;;;;;;;18.87;17.67;;;14.50;99.90;;;;;;5058797;28;20488;-69
2021/07/30 02:01:01;;;;;;;19.33;17.83;;;14.50;99.90;;;;;;5055764;28;20459;-70
2021/07/30 02:03:29;;;;;;;18.87;17.47;;;14.40;99.90;;;;;;5058364;28;20467;-71
2021/07/30 02:05:56;;;;;;;18.80;17.60;;;14.40;99.90;;;;;;5053229;28;20468;-70
2021/07/30 02:08:23;;;;;;;18.70;17.27;;;14.40;99.90;;;;;;5050915;28;20865;-70
2021/07/30 02:10:51;;;;;;;19.70;17.97;;;14.30;99.90;;;;;;5053263;28;20550;-70
2021/07/30 02:16:05;;;;;;;18.63;17.20;;;14.30;99.90;;;;;;5052085;28;21156;-70
2021/07/30 02:18:32;;;;;;;19.03;17.53;;;14.30;99.90;;;;;;5053793;28;20457;-72
2021/07/30 02:21:00;;;;;;;18.83;17.50;;;14.20;99.90;;;;;;5062609;28;20553;-70
2021/07/30 02:23:27;;;;;;;19.03;17.23;;;14.20;99.90;;;;;;5052248;28;20455;-70
2021/07/30 02:25:55;;;;;;;18.73;17.10;;;14.20;99.90;;;;;;5054647;28;20459;-70
2021/07/30 02:28:22;;;;;;;20.30;18.33;;;14.10;99.90;;;;;;5054191;28;20464;-70
2021/07/30 02:30:49;;;;;;;18.63;17.20;;;14.10;99.90;;;;;;5057106;28;20915;-70
2021/07/30 02:33:18;;;;;;;19.43;17.80;;;14.10;99.90;;;;;;5051804;28;20466;-70
2021/07/30 02:35:46;;;;;;;19.17;17.60;;;14.10;99.90;;;;;;5055135;28;20909;-70
2021/07/30 02:38:13;;;;;;;19.60;17.63;;;14.10;99.90;;;;;;5057263;28;20462;-71
2021/07/30 02:40:41;;;;;;;19.57;17.87;;;14.00;99.90;;;;;;5047618;28;20532;-70
2021/07/30 02:43:09;;;;;;;19.77;18.03;;;14.10;99.90;;;;;;5054341;28;20558;-70
2021/07/30 02:45:38;;;;;;;19.50;17.57;;;14.10;99.90;;;;;;5054891;28;20455;-70
2021/07/30 02:48:05;;;;;;;21.47;19.40;;;14.10;99.90;;;;;;5052675;28;20462;-71
2021/07/30 02:50:34;;;;;;;19.23;17.63;;;14.10;99.90;;;;;;5052194;28;20510;-70
2021/07/30 02:53:02;;;;;;;18.87;17.13;;;14.10;99.90;;;;;;5048429;28;20456;-70
2021/07/30 02:55:29;;;;;;;21.60;17.17;;;14.10;99.90;;;;;;5056236;28;20467;-70
2021/07/30 02:57:55;;;;;;;20.17;18.23;;;14.00;99.90;;;;;;5056439;28;20460;-70
2021/07/30 03:00:22;;;;;;;21.43;18.90;;;14.00;99.90;;;;;;5054964;28;20456;-70
2021/07/30 03:02:50;;;;;;;18.90;17.40;;;14.00;99.90;;;;;;5053959;28;20459;-70
2021/07/30 03:05:17;;;;;;;20.53;18.60;;;13.90;99.90;;;;;;5059345;28;20460;-70
2021/07/30 03:07:45;;;;;;;19.10;17.60;;;13.80;99.90;;;;;;5057079;28;20463;-70
2021/07/30 03:10:12;;;;;;;18.73;17.43;;;13.80;99.90;;;;;;5052513;28;20564;-70
2021/07/30 03:12:39;;;;;;;19.93;18.20;;;13.80;99.90;;;;;;5051675;28;20455;-71
2021/07/30 03:15:08;;;;;;;19.97;18.60;;;13.90;99.90;;;;;;5059243;28;20527;-70
2021/07/30 03:17:34;;;;;;;19.80;18.00;;;13.90;99.90;;;;;;5049431;28;20498;-70
2021/07/30 03:20:01;;;;;;;19.90;17.83;;;13.90;99.90;;;;;;5052378;28;20462;-70
2021/07/30 03:22:28;;;;;;;20.70;18.40;;;13.80;99.90;;;;;;5055234;28;20941;-70
2021/07/30 03:24:57;;;;;;;19.50;17.90;;;13.80;99.90;;;;;;5056210;28;20459;-70
2021/07/30 03:27:23;;;;;;;19.90;18.27;;;13.80;99.90;;;;;;5051829;28;20460;-70
2021/07/30 03:29:51;;;;;;;20.53;18.73;;;13.70;99.90;;;;;;5049711;28;20463;-70
2021/07/30 03:32:18;;;;;;;20.07;18.27;;;13.70;99.90;;;;;;5057493;28;20455;-70
2021/07/30 03:34:45;;;;;;;20.10;18.00;;;13.70;99.90;;;;;;5047162;28;20466;-71
2021/07/30 03:37:12;;;;;;;18.77;17.47;;;13.70;99.90;;;;;;5055002;28;20496;-71
2021/07/30 03:39:39;;;;;;;24.73;18.23;;;13.70;99.90;;;;;;5055017;28;20455;-71
2021/07/30 03:42:08;;;;;;;25.47;18.40;;;13.70;99.90;;;;;;5059392;28;20477;-71
2021/07/30 03:44:37;;;;;;;19.97;18.13;;;13.70;99.90;;;;;;5051363;28;20476;-70
2021/07/30 03:47:05;;;;;;;29.70;18.53;;;13.70;99.90;;;;;;5055526;28;20456;-70
2021/07/30 03:49:32;;;;;;;19.30;17.80;;;13.70;99.90;;;;;;5046674;28;20456;-71
2021/07/30 03:51:58;;;;;;;20.47;18.27;;;13.70;99.90;;;;;;5057379;28;20688;-70
2021/07/30 03:54:25;;;;;;;19.67;17.93;;;13.60;99.90;;;;;;5060411;28;20459;-70
2021/07/30 03:56:52;;;;;;;19.27;17.57;;;13.60;99.90;;;;;;5061642;28;20490;-70
2021/07/30 03:59:21;;;;;;;18.40;17.20;;;13.60;99.90;;;;;;5055193;28;20467;-71
2021/07/30 04:01:48;;;;;;;19.63;17.70;;;13.60;99.90;;;;;;5057991;28;20452;-70
2021/07/30 04:04:15;;;;;;;19.13;17.37;;;13.60;99.90;;;;;;5054444;28;20455;-71
2021/07/30 04:06:43;;;;;;;23.37;18.43;;;13.60;99.90;;;;;;5055966;28;20455;-70
2021/07/30 04:09:12;;;;;;;26.03;19.07;;;13.60;99.90;;;;;;5059771;28;20455;-70
2021/07/30 04:11:39;;;;;;;32.80;18.50;;;13.60;99.90;;;;;;5058088;28;20965;-70
2021/07/30 04:14:06;;;;;;;25.43;18.90;;;13.60;99.90;;;;;;5056085;28;20467;-70
2021/07/30 04:16:35;;;;;;;27.60;19.00;;;13.60;99.90;;;;;;5055968;28;20499;-71
2021/07/30 04:19:02;;;;;;;21.03;18.90;;;13.60;99.90;;;;;;5052689;28;20946;-70
2021/07/30 04:21:31;;;;;;;21.53;18.17;;;13.70;99.90;;;;;;5055977;28;20466;-70
2021/07/30 04:24:01;;;;;;;21.20;18.47;;;13.70;99.90;;;;;;5057143;28;20508;-70
2021/07/30 04:26:27;;;;;;;20.20;18.27;;;13.70;99.90;;;;;;5052386;28;20462;-70
2021/07/30 04:28:54;;;;;;;23.07;17.83;;;13.70;99.90;;;;;;5056092;28;20483;-70
2021/07/30 04:31:21;;;;;;;21.60;17.73;;;13.70;99.90;;;;;;5056977;28;20447;-71
2021/07/30 04:33:53;;;;;;;20.00;18.00;;;13.80;99.90;;;;;;5057211;28;20460;-70
2021/07/30 04:36:20;;;;;;;27.33;17.70;;;13.90;99.90;;;;;;5057248;28;20954;-70
2021/07/30 04:38:47;;;;;;;18.70;17.20;;;13.90;99.90;;;;;;5060019;28;20455;-71
2021/07/30 04:41:14;;;;;;;20.50;18.13;;;14.00;99.90;;;;;;5052718;28;20471;-71
2021/07/30 04:43:41;;;;;;;19.43;17.67;;;14.00;99.90;;;;;;5050197;28;20804;-70
2021/07/30 04:46:16;;;;;;;19.30;17.73;;;14.00;99.90;;;;;;5062925;28;20456;-70
2021/07/30 04:48:44;;;;;;;18.50;16.93;;;14.10;99.90;;;;;;5055748;28;20555;-70
2021/07/30 04:51:14;;;;;;;19.27;17.70;;;14.20;99.90;;;;;;5057478;28;20947;-70
2021/07/30 04:53:42;;;;;;;21.07;18.97;;;14.30;99.90;;;;;;5056203;28;20855;-70
2021/07/30 04:56:17;;;;;;;19.27;17.70;;;14.30;99.90;;;;;;5060241;28;20799;-70
2021/07/30 04:58:45;;;;;;;23.93;18.67;;;14.30;99.90;;;;;;5063310;28;20507;-70
2021/07/30 05:01:11;;;;;;;19.07;17.27;;;14.30;99.90;;;;;;5055939;28;20463;-70
2021/07/30 05:03:39;;;;;;;25.13;18.37;;;14.40;99.90;;;;;;5058493;28;20452;-71
2021/07/30 05:06:15;;;;;;;20.10;18.30;;;14.40;99.90;;;;;;5053123;28;20823;-71
2021/07/30 05:08:42;;;;;;;20.30;18.50;;;14.50;99.90;;;;;;5057561;28;20949;-70
2021/07/30 05:11:10;;;;;;;19.80;18.20;;;14.50;99.90;;;;;;5056000;28;20471;-71
2021/07/30 05:13:40;;;;;;;19.93;18.23;;;14.50;99.90;;;;;;5057043;28;20480;-70
2021/07/30 05:16:09;;;;;;;24.27;18.33;;;14.60;99.90;;;;;;5055009;28;20481;-70
2021/07/30 05:18:36;;;;;;;20.73;18.43;;;14.60;99.90;;;;;;5054471;28;20483;-71
2021/07/30 05:21:06;;;;;;;20.30;18.40;;;14.70;99.90;;;;;;5057931;28;20841;-70
2021/07/30 05:23:36;;;;;;;20.10;18.20;;;14.70;99.90;;;;;;5057098;28;20456;-70
2021/07/30 05:26:03;;;;;;;22.20;20.10;;;14.80;99.90;;;;;;5054596;28;20955;-72
2021/07/30 05:28:30;;;;;;;20.30;18.60;;;14.90;99.90;;;;;;5051139;28;20467;-70
2021/07/30 05:30:58;;;;;;;21.33;19.20;;;14.90;99.90;;;;;;5057885;28;20455;-70
2021/07/30 05:33:27;;;;;;;20.70;18.70;;;15.10;99.90;;;;;;5057475;28;20561;-70
2021/07/30 05:35:57;;;;;;;25.00;19.00;;;15.20;99.90;;;;;;5056168;28;20819;-70
2021/07/30 05:38:24;;;;;;;19.90;18.20;;;15.30;99.90;;;;;;5057097;28;20487;-71
2021/07/30 05:40:53;;;;;;;19.70;18.20;;;15.50;99.90;;;;;;5053357;28;20942;-70
2021/07/30 05:43:19;;;;;;;21.70;18.17;;;15.70;99.90;;;;;;5054221;28;20830;-70
2021/07/30 05:45:47;;;;;;;23.57;18.40;;;15.80;99.90;;;;;;5054342;28;20450;-71
2021/07/30 05:48:15;;;;;;;19.63;18.23;;;16.00;99.90;;;;;;5056161;28;20559;-70
2021/07/30 05:50:41;;;;;;;21.13;19.10;;;16.10;99.90;;;;;;5051777;28;20455;-70
2021/07/30 05:53:08;;;;;;;20.30;18.40;;;16.20;99.90;;;;;;5052475;28;20459;-70
2021/07/30 05:55:38;;;;;;;20.30;18.23;;;16.30;99.90;;;;;;5062686;28;20508;-69
2021/07/30 05:58:08;;;;;;;20.13;18.47;;;16.50;99.90;;;;;;5054961;28;20732;-69
2021/07/30 06:00:34;;;;;;;20.13;18.13;;;16.60;99.90;;;;;;5052249;28;20523;-71
2021/07/30 06:03:02;;;;;;;19.90;18.17;;;16.70;99.90;;;;;;5051371;28;20802;-70
2021/07/30 06:05:29;;;;;;;19.43;18.03;;;16.80;99.90;;;;;;5053597;28;20466;-69
2021/07/30 06:07:57;;;;;;;20.60;18.83;;;17.00;99.90;;;;;;5052766;28;20856;-69
2021/07/30 06:10:24;;;;;;;41.60;17.73;;;17.10;99.90;;;;;;5050618;28;20843;-70
2021/07/30 06:12:51;;;;;;;20.10;18.20;;;17.10;99.90;;;;;;5051072;28;20474;-70
2021/07/30 06:15:23;;;;;;;19.17;17.67;;;17.20;99.90;;;;;;5052877;28;20561;-70
2021/07/30 06:17:49;;;;;;;19.60;17.57;;;17.30;99.90;;;;;;5044431;28;20974;-70
2021/07/30 06:20:17;;;;;;;19.10;17.67;;;17.40;99.90;;;;;;5050393;28;20460;-70
2021/07/30 06:22:44;;;;;;;17.93;16.53;;;17.40;99.90;;;;;;5052606;28;20461;-70
2021/07/30 06:25:12;;;;;;;19.30;17.80;;;17.60;99.90;;;;;;5050399;28;20453;-70
2021/07/30 06:27:39;;;;;;;23.83;17.90;;;17.70;99.90;;;;;;5049393;28;20469;-71
2021/07/30 06:30:08;;;;;;;19.60;16.57;;;17.80;99.90;;;;;;5048648;28;20946;-69
2021/07/30 06:32:37;;;;;;;19.63;17.93;;;17.90;99.90;;;;;;5053204;28;20463;-70
2021/07/30 06:35:06;;;;;;;18.60;16.83;;;18.00;99.90;;;;;;5051055;28;20796;-70
2021/07/30 06:37:33;;;;;;;19.07;17.40;;;18.00;99.90;;;;;;5049779;28;20486;-70
2021/07/30 06:40:00;;;;;;;18.53;17.03;;;18.20;99.90;;;;;;5050775;28;20462;-71
2021/07/30 06:42:27;;;;;;;19.17;17.17;;;18.30;99.90;;;;;;5051629;28;20467;-70
2021/07/30 06:44:54;;;;;;;18.60;16.90;;;18.40;99.90;;;;;;5049128;28;20567;-69
2021/07/30 06:47:22;;;;;;;17.80;16.07;;;18.40;99.90;;;;;;5052524;28;20466;-69
2021/07/30 06:49:50;;;;;;;18.80;17.20;;;18.50;99.90;;;;;;5048124;28;20556;-72
2021/07/30 06:52:18;;;;;;;21.40;18.33;;;18.60;99.90;;;;;;5052510;28;21165;-70
2021/07/30 06:54:45;;;;;;;20.03;17.30;;;18.70;99.90;;;;;;5048484;28;20971;-70
2021/07/30 06:57:13;;;;;;;17.87;16.30;;;18.90;99.90;;;;;;5048251;28;20552;-69
2021/07/30 06:59:39;;;;;;;18.80;17.37;;;19.10;99.90;;;;;;5054155;28;20467;-70
2021/07/30 07:02:07;;;;;;;18.57;17.00;;;19.30;99.90;;;;;;5051607;28;20455;-70
2021/07/30 07:04:34;;;;;;;16.97;15.57;;;19.60;99.90;;;;;;5051734;28;20547;-70
2021/07/30 07:07:02;;;;;;;17.40;15.90;;;19.90;99.90;;;;;;5052819;28;20467;-71
2021/07/30 07:09:29;;;;;;;17.20;15.50;;;20.00;99.90;;;;;;5051857;28;20471;-72
2021/07/30 07:11:56;;;;;;;22.73;15.63;;;20.20;99.90;;;;;;5051248;28;20466;-70
2021/07/30 07:14:23;;;;;;;17.40;15.57;;;20.60;99.90;;;;;;5044982;28;20931;-70
2021/07/30 07:16:50;;;;;;;30.40;16.27;;;20.80;99.90;;;;;;5058593;28;20518;-71
2021/07/30 07:19:17;;;;;;;16.40;14.97;;;21.10;99.90;;;;;;5049127;28;20514;-71
2021/07/30 07:21:45;;;;;;;22.60;15.23;;;21.70;99.90;;;;;;5053387;28;20455;-71
2021/07/30 07:24:13;;;;;;;17.57;15.47;;;22.00;99.90;;;;;;5047000;28;20798;-71
2021/07/30 07:26:41;;;;;;;18.93;14.90;;;22.10;99.90;;;;;;5045032;28;21116;-72
2021/07/30 07:29:07;;;;;;;18.17;15.30;;;22.60;99.90;;;;;;5049309;28;20563;-71
2021/07/30 07:31:35;;;;;;;17.73;16.13;;;22.70;99.90;;;;;;5048595;28;20455;-70
2021/07/30 07:34:02;;;;;;;17.77;15.40;;;22.60;99.90;;;;;;5055661;28;20547;-71
2021/07/30 07:36:29;;;;;;;18.40;15.70;;;22.40;99.90;;;;;;5058039;28;20460;-71
2021/07/30 07:38:56;;;;;;;18.20;16.23;;;22.70;99.90;;;;;;5051379;28;20911;-70
2021/07/30 07:41:25;;;;;;;16.93;15.70;;;22.70;99.90;;;;;;5062263;28;20463;-70
2021/07/30 07:43:53;;;;;;;17.90;15.63;;;22.60;99.90;;;;;;5054971;28;20562;-71
2021/07/30 07:46:19;;;;;;;16.00;15.00;;;22.70;99.90;;;;;;5055973;28;20831;-72
2021/07/30 07:48:46;;;;;;;15.27;14.27;;;22.70;99.90;;;;;;5053763;28;20462;-70
2021/07/30 07:51:14;;;;;;;16.53;15.10;;;22.90;99.90;;;;;;5055719;28;20466;-70
2021/07/30 07:53:40;;;;;;;16.90;15.23;;;22.90;99.90;;;;;;5051457;28;20467;-71
2021/07/30 07:56:08;;;;;;;15.53;14.30;;;22.70;99.90;;;;;;5058854;28;20474;-71
2021/07/30 07:58:36;;;;;;;15.30;14.40;;;22.70;99.90;;;;;;5059476;28;20487;-72
2021/07/30 08:01:03;;;;;;;16.50;14.90;;;23.00;99.90;;;;;;5060061;28;20466;-72
2021/07/30 08:03:30;;;;;;;15.50;14.43;;;22.90;99.90;;;;;;5057027;28;20917;-70
2021/07/30 08:05:57;;;;;;;14.97;14.17;;;22.80;99.90;;;;;;5054213;28;20456;-71
2021/07/30 08:08:24;;;;;;;15.93;14.63;;;22.70;99.90;;;;;;5055317;28;20533;-70
2021/07/30 08:10:51;;;;;;;15.90;14.77;;;22.90;99.90;;;;;;5054356;28;20470;-71
2021/07/30 08:13:18;;;;;;;15.77;14.97;;;22.80;99.90;;;;;;5053970;28;20544;-72
2021/07/30 08:15:46;;;;;;;18.43;15.10;;;22.90;99.90;;;;;;5055709;28;20813;-71
2021/07/30 08:18:13;;;;;;;15.80;14.63;;;22.80;99.90;;;;;;5055445;28;20483;-71
2021/07/30 08:20:40;;;;;;;16.50;14.80;;;22.60;99.90;;;;;;5053267;28;20511;-70
2021/07/30 08:23:07;;;;;;;16.13;14.63;;;22.90;99.90;;;;;;5056089;28;20996;-72
2021/07/30 08:25:34;;;;;;;14.20;13.53;;;23.10;99.90;;;;;;5052539;28;20466;-70
2021/07/30 08:28:04;;;;;;;14.70;13.90;;;23.10;99.90;;;;;;5056850;28;20471;-71
2021/07/30 08:30:31;;;;;;;14.90;14.00;;;22.90;99.90;;;;;;5053937;28;20462;-70
2021/07/30 08:33:00;;;;;;;15.43;14.47;;;23.40;99.90;;;;;;5056501;28;20470;-71
2021/07/30 08:35:27;;;;;;;15.20;14.40;;;24.30;99.90;;;;;;5051241;28;20471;-70
2021/07/30 08:37:53;;;;;;;15.93;15.03;;;24.30;99.90;;;;;;5059970;28;20494;-71
2021/07/30 08:40:21;;;;;;;16.03;14.93;;;24.40;99.90;;;;;;5054157;28;20474;-70
2021/07/30 08:42:49;;;;;;;15.43;14.50;;;25.30;99.90;;;;;;5051491;28;20459;-70
2021/07/30 08:45:16;;;;;;;15.67;14.77;;;25.50;99.90;;;;;;5050358;28;20480;-71
2021/07/30 08:47:44;;;;;;;15.43;14.33;;;25.90;99.90;;;;;;5049670;28;20455;-72
2021/07/30 08:50:14;;;;;;;15.33;14.30;;;25.20;99.90;;;;;;5054563;28;20455;-71
2021/07/30 08:52:43;;;;;;;15.67;14.70;;;25.20;99.90;;;;;;5055151;28;20463;-72
2021/07/30 08:55:11;;;;;;;14.90;14.10;;;25.20;99.90;;;;;;5051954;28;20459;-71
2021/07/30 08:57:38;;;;;;;15.43;14.50;;;25.40;99.90;;;;;;5051078;28;20459;-72
2021/07/30 09:00:10;;;;;;;15.43;14.60;;;25.50;99.90;;;;;;5051372;28;20459;-72
2021/07/30 09:02:37;;;;;;;16.23;15.23;;;24.90;99.90;;;;;;5052029;28;20571;-73
2021/07/30 09:05:29;;;;;;;15.37;14.47;;;24.70;99.90;;;;;;5051208;28;20459;-70
2021/07/30 09:07:57;;;;;;;16.27;14.70;;;25.00;99.90;;;;;;5042790;28;20464;-70
2021/07/30 09:10:29;;;;;;;16.03;15.10;;;25.30;99.90;;;;;;5047551;28;21019;-69
2021/07/30 09:13:21;;;;;;;16.20;15.17;;;25.60;99.90;;;;;;5058575;28;20470;-69
2021/07/30 09:15:58;;;;;;;15.73;14.73;;;25.90;99.90;;;;;;5048505;28;20483;-69
2021/07/30 09:18:31;;;;;;;15.43;14.50;;;25.50;99.90;;;;;;5052368;28;20486;-70
2021/07/30 09:21:25;;;;;;;16.23;15.33;;;25.70;99.90;;;;;;5054120;28;20450;-72
2021/07/30 09:23:53;;;;;;;15.67;14.83;;;26.10;99.90;;;;;;5048910;28;20512;-72
2021/07/30 09:26:32;;;;;;;15.30;14.50;;;27.10;99.90;;;;;;5051487;28;20456;-71
2021/07/30 09:29:00;;;;;;;14.70;14.00;;;27.80;99.90;;;;;;5053589;28;20467;-72
2021/07/30 09:31:36;;;;;;;15.50;14.80;;;27.60;99.90;;;;;;5059042;28;21018;-71
2021/07/30 09:34:14;;;;;;;16.27;14.97;;;27.00;99.90;;;;;;5052520;28;20455;-71
2021/07/30 09:36:44;;;;;;;15.80;14.73;;;27.20;99.90;;;;;;5046248;28;21239;-72
2021/07/30 09:39:11;;;;;;;16.10;15.00;;;27.60;99.90;;;;;;5043910;28;21208;-70
2021/07/30 09:41:38;;;;;;;16.00;15.00;;;27.70;99.90;;;;;;5054303;28;20819;-71
2021/07/30 09:44:05;;;;;;;16.00;15.00;;;28.50;99.90;;;;;;5051019;28;20510;-74
2021/07/30 09:46:32;;;;;;;16.07;14.97;;;28.30;99.40;;;;;;5049305;28;20456;-71
2021/07/30 09:49:00;;;;;;;14.73;14.03;;;28.50;99.20;;;;;;5051217;28;21009;-71
2021/07/30 09:51:28;;;;;;;19.60;14.90;;;27.90;99.50;;;;;;5050827;28;20466;-71
2021/07/30 09:53:58;;;;;;;15.90;14.80;;;27.90;99.70;;;;;;5057887;28;20459;-72
2021/07/30 09:56:25;;;;;;;15.90;14.90;;;28.30;99.40;;;;;;5046832;28;20463;-72
2021/07/30 09:58:58;;;;;;;16.43;15.43;;;28.80;99.20;;;;;;5055618;28;20506;-72
2021/07/30 10:01:26;;;;;;;15.20;14.33;;;28.90;98.80;;;;;;5058796;28;20467;-72
2021/07/30 10:03:54;;;;;;;14.90;13.87;;;28.10;98.30;;;;;;5044671;28;20463;-72
2021/07/30 10:06:21;;;;;;;14.87;13.97;;;28.20;98.60;;;;;;5051408;28;20467;-73
2021/07/30 10:08:48;;;;;;;15.30;14.30;;;27.50;99.60;;;;;;5053684;28;20464;-71
2021/07/30 10:11:17;;;;;;;16.70;15.50;;;27.70;99.40;;;;;;5054697;28;20464;-70
2021/07/30 10:13:49;;;;;;;14.97;14.00;;;27.60;99.20;;;;;;5048508;28;20585;-71
2021/07/30 10:16:20;;;;;;;16.00;14.80;;;27.40;99.00;;;;;;5050230;28;20649;-74
2021/07/30 10:18:48;;;;;;;15.27;14.47;;;27.40;99.60;;;;;;5051816;28;20479;-72
2021/07/30 10:21:21;;;;;;;15.10;14.20;;;27.60;98.70;;;;;;5055802;28;20465;-74
2021/07/30 10:23:51;;;;;;;14.80;14.00;;;27.40;99.30;;;;;;5055337;28;20956;-71
2021/07/30 10:26:26;;;;;;;14.40;13.50;;;27.20;99.20;;;;;;5049133;28;20459;-71
2021/07/30 10:28:58;;;;;;;15.23;14.33;;;27.30;98.30;;;;;;5044950;28;20523;-71
2021/07/30 10:31:48;;;;;;;14.93;13.93;;;26.90;99.20;;;;;;5056818;28;20484;-72
2021/07/30 10:34:15;;;;;;;16.07;14.97;;;26.40;99.70;;;;;;5049640;28;20459;-72
2021/07/30 10:36:43;;;;;;;15.37;14.47;;;26.10;99.90;;;;;;5049257;28;20509;-71
2021/07/30 10:39:15;;;;;;;15.13;14.13;;;25.90;99.90;;;;;;5059504;28;20595;-71
2021/07/30 10:42:10;;;;;;;15.27;14.47;;;26.20;99.90;;;;;;5052625;28;20456;-71
2021/07/30 10:44:58;;;;;;;18.47;14.97;;;26.40;98.70;;;;;;5045036;28;20873;-70
2021/07/30 10:47:26;;;;;;;16.20;15.20;;;26.90;98.80;;;;;;5051635;28;20456;-71
2021/07/30 10:49:53;;;;;;;15.87;14.87;;;26.90;98.80;;;;;;5051444;28;20469;-71
2021/07/30 10:52:28;;;;;;;15.87;14.97;;;27.10;98.30;;;;;;5050185;28;20460;-71
2021/07/30 10:54:55;;;;;;;16.10;14.80;;;27.00;99.20;;;;;;5047878;28;20455;-71
2021/07/30 10:57:47;;;;;;;14.80;13.90;;;27.70;98.40;;;;;;5048987;28;20455;-72
2021/07/30 11:00:14;;;;;;;15.97;14.63;;;27.40;97.80;;;;;;5050054;28;20489;-73
2021/07/30 11:03:01;;;;;;;15.73;14.80;;;27.80;98.20;;;;;;5051460;28;20450;-72
2021/07/30 11:05:29;;;;;;;16.43;15.40;;;28.40;97.60;;;;;;5062639;28;20509;-72
2021/07/30 11:08:01;;;;;;;15.10;14.10;;;28.40;96.00;;;;;;5056871;28;20486;-72
2021/07/30 11:10:29;;;;;;;16.00;15.00;;;29.20;95.80;;;;;;5055548;28;20470;-71
2021/07/30 11:12:56;;;;;;;16.10;15.20;;;30.00;94.70;;;;;;5054413;28;20862;-74
2021/07/30 11:15:23;;;;;;;16.17;15.17;;;30.70;94.10;;;;;;5049661;28;20575;-72
2021/07/30 11:17:50;;;;;;;15.03;14.03;;;31.40;92.90;;;;;;5059731;28;20468;-73
2021/07/30 11:20:19;;;;;;;16.63;15.43;;;31.60;91.40;;;;;;5051666;28;20843;-74
2021/07/30 11:22:46;;;;;;;15.70;14.60;;;31.30;90.80;;;;;;5054940;28;20469;-72
2021/07/30 11:25:14;;;;;;;15.90;15.07;;;31.70;91.30;;;;;;5056480;28;20509;-75
2021/07/30 11:27:41;;;;;;;15.57;14.70;;;31.80;89.20;;;;;;5056653;28;20464;-71
2021/07/30 11:30:11;;;;;;;15.57;14.67;;;31.00;90.40;;;;;;5053085;28;20467;-74
2021/07/30 11:32:39;;;;;;;15.77;14.67;;;30.20;91.00;;;;;;5051756;28;20471;-72
2021/07/30 11:35:10;;;;;;;15.57;14.77;;;30.10;92.40;;;;;;5055101;28;20446;-74
2021/07/30 11:37:39;;;;;;;15.97;15.00;;;31.00;91.70;;;;;;5049459;28;20459;-75
2021/07/30 11:40:15;;;;;;;16.00;15.10;;;31.80;90.30;;;;;;5052703;28;20501;-72
2021/07/30 11:42:42;;;;;;;15.80;14.93;;;32.10;86.00;;;;;;5051779;28;20466;-72
2021/07/30 11:45:17;;;;;;;16.20;15.30;;;31.50;86.50;;;;;;5054831;28;20484;-72
2021/07/30 11:47:44;;;;;;;16.23;15.37;;;30.70;87.80;;;;;;5052739;28;20455;-74
2021/07/30 11:50:13;;;;;;;16.17;15.20;;;31.20;88.70;;;;;;5052814;28;20460;-71
2021/07/30 11:52:42;;;;;;;16.30;15.30;;;31.70;88.20;;;;;;5051396;28;20463;-72
2021/07/30 11:55:16;;;;;;;15.60;14.73;;;31.70;87.30;;;;;;5053866;28;20468;-73
2021/07/30 11:57:44;;;;;;;15.80;14.90;;;31.00;85.20;;;;;;5052236;28;20466;-72
2021/07/30 12:00:12;;;;;;;16.63;15.73;;;30.20;88.20;;;;;;5055542;28;20481;-72
2021/07/30 12:02:39;;;;;;;16.43;15.47;;;30.10;89.70;;;;;;5053325;28;20455;-74
2021/07/30 12:05:06;;;;;;;16.10;15.30;;;30.80;88.50;;;;;;5055747;28;20452;-70
2021/07/30 12:07:36;;;;;;;15.40;14.67;;;31.70;85.50;;;;;;5052338;28;20966;-71
2021/07/30 12:10:08;;;;;;;15.87;14.97;;;32.20;83.40;;;;;;5060647;28;20490;-72
2021/07/30 12:12:40;;;;;;;16.17;15.17;;;32.20;81.00;;;;;;5049379;28;20464;-72
2021/07/30 12:15:09;;;;;;;14.93;14.23;;;31.50;81.40;;;;;;5051635;28;20456;-74
2021/07/30 12:17:36;;;;;;;16.50;15.40;;;31.00;83.40;;;;;;5048925;28;20541;-71
2021/07/30 12:20:05;;;;;;;16.00;15.20;;;31.30;80.70;;;;;;5056437;28;20511;-73
2021/07/30 12:22:43;;;;;;;15.80;14.90;;;31.90;81.30;;;;;;5058673;28;20468;-72
2021/07/30 12:25:16;;;;;;;16.10;15.30;;;32.10;79.90;;;;;;5056840;28;20470;-72
2021/07/30 12:27:43;;;;;;;16.30;15.47;;;32.60;79.80;;;;;;5051960;28;20558;-74
2021/07/30 12:30:25;;;;;;;15.50;14.70;;;33.40;77.80;;;;;;5056782;28;20462;-71
2021/07/30 12:32:52;;;;;;;15.60;14.83;;;33.10;77.50;;;;;;5053056;28;20488;-75
2021/07/30 12:35:30;;;;;;;15.87;14.87;;;32.60;76.50;;;;;;5052596;28;20459;-73
2021/07/30 12:38:07;;;;;;;15.70;14.80;;;32.50;76.60;;;;;;5053654;28;20940;-72